Time;durP1;ratioP1;P1;durP2;ratioP2;P2;SDS_P1;SDS_P2;PMS_P1;PMS_P2;Temp;Humidity;BMP_temperature;BMP_pressure;BME280_temperature;BME280_humidity;BME280_pressure;Samples;Min_cycle;Max_cycle;Signal;HPM_P1;HPM_P2
2022/12/08 00:01:28;;;;;;;31.45;23.08;;;3.60;93.00;;;;;;5013859;28;20875;-79
2022/12/08 00:03:56;;;;;;;32.75;23.02;;;3.60;93.10;;;;;;5014741;28;20044;-77
2022/12/08 00:09:39;;;;;;;28.92;23.15;;;3.70;93.10;;;;;;5007966;28;20060;-79
2022/12/08 00:12:17;;;;;;;34.35;22.63;;;3.70;93.00;;;;;;5009547;28;20298;-79
2022/12/08 00:14:53;;;;;;;27.40;21.50;;;3.60;93.00;;;;;;5012326;28;20034;-77
2022/12/08 00:17:21;;;;;;;33.67;22.05;;;3.60;93.00;;;;;;5009063;28;20090;-77
2022/12/08 00:19:57;;;;;;;31.17;20.58;;;3.70;93.10;;;;;;5017378;28;20481;-77
2022/12/08 00:22:25;;;;;;;28.92;21.33;;;3.60;93.10;;;;;;5015925;28;20124;-77
2022/12/08 00:24:50;;;;;;;33.10;21.77;;;3.60;93.10;;;;;;5006856;28;20029;-79
2022/12/08 00:27:16;;;;;;;31.35;21.35;;;3.60;93.20;;;;;;5017692;28;20080;-78
2022/12/08 00:29:46;;;;;;;33.20;22.70;;;3.70;93.20;;;;;;5015558;28;20474;-78
2022/12/08 00:32:18;;;;;;;29.90;20.92;;;3.60;93.20;;;;;;5010983;28;20100;-77
2022/12/08 00:34:49;;;;;;;31.25;20.95;;;3.60;93.20;;;;;;5015958;28;20164;-78
2022/12/08 00:37:15;;;;;;;35.03;21.50;;;3.60;93.20;;;;;;5006925;28;20034;-77
2022/12/08 00:39:41;;;;;;;32.50;23.38;;;3.60;93.30;;;;;;5012555;28;20511;-78
2022/12/08 00:42:13;;;;;;;32.55;20.45;;;3.60;93.30;;;;;;5018444;28;20299;-77
2022/12/08 00:44:42;;;;;;;34.78;23.25;;;3.60;93.30;;;;;;5014115;28;20049;-76
2022/12/08 00:47:10;;;;;;;32.42;23.25;;;3.60;93.30;;;;;;5013581;28;20039;-78
2022/12/08 00:49:38;;;;;;;33.80;22.95;;;3.70;93.40;;;;;;5016456;28;20032;-79
2022/12/08 00:52:06;;;;;;;37.78;25.42;;;3.70;93.40;;;;;;5015067;28;20616;-78
2022/12/08 00:54:35;;;;;;;33.25;24.42;;;3.70;93.50;;;;;;5017236;28;20041;-78
2022/12/08 00:57:03;;;;;;;37.25;24.45;;;3.80;93.40;;;;;;5012495;28;20042;-77
2022/12/08 00:59:31;;;;;;;39.35;28.00;;;3.80;93.40;;;;;;5010609;28;20022;-79
2022/12/08 01:01:59;;;;;;;35.22;25.80;;;3.90;93.30;;;;;;5009337;28;20041;-77
2022/12/08 01:04:24;;;;;;;37.63;28.55;;;3.90;93.30;;;;;;5010954;28;20113;-77
2022/12/08 01:06:53;;;;;;;35.35;27.33;;;3.90;93.30;;;;;;5011338;28;20172;-77
2022/12/08 01:09:18;;;;;;;38.50;27.67;;;3.80;93.20;;;;;;5012627;28;20112;-77
2022/12/08 01:11:45;;;;;;;40.38;26.52;;;3.80;93.30;;;;;;5016620;28;20159;-78
2022/12/08 01:14:19;;;;;;;35.45;25.55;;;3.80;93.30;;;;;;5012804;28;20029;-79
2022/12/08 01:16:47;;;;;;;32.20;23.90;;;3.80;93.20;;;;;;5017743;28;20037;-78
2022/12/08 01:19:14;;;;;;;29.55;22.75;;;3.80;93.30;;;;;;5012039;28;20292;-79
2022/12/08 01:21:40;;;;;;;28.40;20.38;;;3.80;93.30;;;;;;5015880;28;20052;-77
2022/12/08 01:24:08;;;;;;;28.60;20.42;;;3.80;93.30;;;;;;5010644;28;20041;-78
2022/12/08 01:26:34;;;;;;;29.23;19.42;;;3.70;93.20;;;;;;5018312;28;20036;-78
2022/12/08 01:29:05;;;;;;;29.25;17.92;;;3.70;93.20;;;;;;5019394;28;20038;-77
2022/12/08 01:31:33;;;;;;;25.73;18.75;;;3.70;93.10;;;;;;5007093;28;20034;-77
2022/12/08 01:33:58;;;;;;;27.08;18.35;;;3.60;93.00;;;;;;5016644;28;20037;-78
2022/12/08 01:36:27;;;;;;;27.75;18.33;;;3.60;93.00;;;;;;5008351;28;20068;-78
2022/12/08 01:38:59;;;;;;;29.55;18.48;;;3.50;92.90;;;;;;5010101;28;20049;-79
2022/12/08 01:41:28;;;;;;;26.60;17.95;;;3.50;92.80;;;;;;5012725;28;20058;-77
2022/12/08 01:44:03;;;;;;;29.35;17.40;;;3.40;92.80;;;;;;5000771;28;20454;-77
2022/12/08 01:46:32;;;;;;;25.30;17.48;;;3.40;92.80;;;;;;4998968;28;20045;-76
2022/12/08 01:49:12;;;;;;;23.30;16.50;;;3.30;92.80;;;;;;5001762;28;20481;-77
2022/12/08 01:52:13;;;;;;;24.90;16.92;;;3.20;92.90;;;;;;4992708;28;20360;-77
2022/12/08 01:54:47;;;;;;;25.38;17.58;;;3.20;93.00;;;;;;4999782;28;20589;-76
2022/12/08 01:57:38;;;;;;;25.05;16.85;;;3.10;93.00;;;;;;5013270;28;20107;-78
2022/12/08 02:00:11;;;;;;;24.42;17.60;;;3.10;93.00;;;;;;4995188;28;20054;-78
2022/12/08 02:02:53;;;;;;;27.95;18.35;;;3.00;93.00;;;;;;4993578;28;20030;-76
2022/12/08 02:05:31;;;;;;;28.67;19.05;;;3.00;93.00;;;;;;4993790;28;20351;-76
2022/12/08 02:08:03;;;;;;;27.55;18.83;;;3.00;93.00;;;;;;4994170;28;20508;-76
2022/12/08 02:10:31;;;;;;;26.77;17.05;;;2.90;93.00;;;;;;4992999;28;20042;-76
2022/12/08 02:13:00;;;;;;;26.15;17.98;;;2.90;93.00;;;;;;5000407;28;20078;-76
2022/12/08 02:15:53;;;;;;;27.33;17.70;;;2.90;93.10;;;;;;4996985;28;20300;-78
2022/12/08 02:18:51;;;;;;;26.67;17.38;;;2.80;93.10;;;;;;4993195;28;20092;-79
2022/12/08 02:21:32;;;;;;;24.15;16.45;;;2.80;93.20;;;;;;5001415;28;20030;-78
2022/12/08 02:24:06;;;;;;;24.30;16.50;;;2.80;93.20;;;;;;4995376;28;20050;-77
2022/12/08 02:26:37;;;;;;;25.30;17.33;;;2.80;93.30;;;;;;4994572;28;20030;-78
2022/12/08 02:29:31;;;;;;;30.98;17.67;;;2.70;93.20;;;;;;4998000;28;20046;-77
2022/12/08 02:32:29;;;;;;;23.65;17.65;;;2.70;93.20;;;;;;4991159;28;20085;-78
2022/12/08 02:35:11;;;;;;;27.20;18.17;;;2.70;93.20;;;;;;4988540;28;20398;-77
2022/12/08 02:37:44;;;;;;;29.38;19.38;;;2.60;93.30;;;;;;5002298;28;20311;-77
2022/12/08 02:40:30;;;;;;;32.38;19.00;;;2.60;93.30;;;;;;4989948;28;20046;-77
2022/12/08 02:43:11;;;;;;;28.30;18.30;;;2.60;93.30;;;;;;4995772;28;20486;-77
2022/12/08 02:45:50;;;;;;;29.73;18.05;;;2.60;93.30;;;;;;5003017;28;20041;-79
2022/12/08 02:48:18;;;;;;;29.48;16.63;;;2.60;93.40;;;;;;4995039;28;20035;-78
2022/12/08 02:50:46;;;;;;;24.70;17.27;;;2.60;93.30;;;;;;5001243;28;20435;-77
2022/12/08 02:53:11;;;;;;;27.98;17.83;;;2.60;93.30;;;;;;5008777;28;20047;-78
2022/12/08 02:55:54;;;;;;;28.33;18.45;;;2.60;93.40;;;;;;5017557;28;20036;-78
2022/12/08 02:58:52;;;;;;;31.83;18.90;;;2.60;93.40;;;;;;5011364;28;20041;-78
2022/12/08 03:01:33;;;;;;;28.92;19.00;;;2.50;93.30;;;;;;4990548;28;20403;-80
2022/12/08 03:04:03;;;;;;;25.35;17.75;;;2.60;93.30;;;;;;4996452;28;20057;-77
2022/12/08 03:06:43;;;;;;;28.52;19.30;;;2.50;93.20;;;;;;4989046;28;20029;-77
2022/12/08 03:09:32;;;;;;;30.75;19.73;;;2.40;93.20;;;;;;4998528;28;20036;-77
2022/12/08 03:12:12;;;;;;;34.25;20.70;;;2.40;93.20;;;;;;4996532;28;20436;-77
2022/12/08 03:14:43;;;;;;;25.50;18.70;;;2.50;93.10;;;;;;4997189;28;20046;-78
2022/12/08 03:17:09;;;;;;;28.98;19.08;;;2.40;93.10;;;;;;4999362;28;20379;-77
2022/12/08 03:19:39;;;;;;;28.15;18.67;;;2.30;93.10;;;;;;5002751;28;20042;-77
2022/12/08 03:22:09;;;;;;;33.72;20.52;;;2.40;93.10;;;;;;4997913;28;20054;-78
2022/12/08 03:24:40;;;;;;;33.58;20.30;;;2.40;93.10;;;;;;5000375;28;20034;-77
2022/12/08 03:27:18;;;;;;;26.92;18.73;;;2.30;93.10;;;;;;4997826;28;20454;-79
2022/12/08 03:29:48;;;;;;;31.95;21.27;;;2.30;93.10;;;;;;5001333;28;20072;-76
2022/12/08 03:32:46;;;;;;;27.33;18.83;;;2.20;93.20;;;;;;4998567;28;20061;-76
2022/12/08 03:35:20;;;;;;;31.88;21.08;;;2.20;93.20;;;;;;5005697;28;20045;-78
2022/12/08 03:37:46;;;;;;;33.35;20.70;;;2.10;93.20;;;;;;5004458;28;20037;-77
2022/12/08 03:40:15;;;;;;;31.02;21.38;;;2.10;93.20;;;;;;5008597;28;20482;-76
2022/12/08 03:42:43;;;;;;;32.30;21.75;;;2.10;93.30;;;;;;5009788;28;20462;-78
2022/12/08 03:45:14;;;;;;;33.53;23.45;;;2.10;93.30;;;;;;4998897;28;20459;-78
2022/12/08 03:47:42;;;;;;;38.38;22.90;;;2.10;93.40;;;;;;4995588;28;20375;-77
2022/12/08 03:50:10;;;;;;;40.22;24.20;;;2.10;93.50;;;;;;4990135;28;20034;-76
2022/12/08 03:52:36;;;;;;;36.22;22.92;;;2.10;93.50;;;;;;4996047;28;20116;-77
2022/12/08 03:55:02;;;;;;;34.90;22.67;;;2.10;93.50;;;;;;4997531;28;20096;-76
2022/12/08 03:57:27;;;;;;;33.25;22.75;;;2.10;93.60;;;;;;4993238;28;20098;-78
2022/12/08 03:59:57;;;;;;;32.22;21.48;;;2.20;93.60;;;;;;4995673;28;20549;-77
2022/12/08 04:02:28;;;;;;;30.70;20.98;;;2.20;93.60;;;;;;4993540;28;20125;-77
2022/12/08 04:04:54;;;;;;;36.67;22.38;;;2.30;93.60;;;;;;4996486;28;20074;-77
2022/12/08 04:07:26;;;;;;;32.90;23.23;;;2.40;93.60;;;;;;4996130;28;20137;-78
2022/12/08 04:09:55;;;;;;;33.83;22.80;;;2.40;93.60;;;;;;4998400;28;20038;-78
2022/12/08 04:12:22;;;;;;;31.13;21.23;;;2.40;93.60;;;;;;4998129;28;20041;-78
2022/12/08 04:14:53;;;;;;;32.85;23.55;;;2.50;93.50;;;;;;4995872;28;20038;-78
2022/12/08 04:17:23;;;;;;;31.38;20.95;;;2.60;93.50;;;;;;4998220;28;20149;-77
2022/12/08 04:19:53;;;;;;;30.77;22.00;;;2.60;93.50;;;;;;4993891;28;20049;-79
2022/12/08 04:22:21;;;;;;;30.48;21.45;;;2.60;93.50;;;;;;4992569;28;20050;-77
2022/12/08 04:24:49;;;;;;;28.30;20.77;;;2.60;93.50;;;;;;4989282;28;20046;-78
2022/12/08 04:27:15;;;;;;;32.60;20.83;;;2.60;93.40;;;;;;4989739;28;20130;-77
2022/12/08 04:29:43;;;;;;;33.10;21.17;;;2.60;93.30;;;;;;4995478;28;20130;-77
2022/12/08 04:32:13;;;;;;;33.03;21.15;;;2.50;93.40;;;;;;4997954;28;20044;-78
2022/12/08 04:34:38;;;;;;;30.85;20.02;;;2.50;93.30;;;;;;5007788;28;20034;-78
2022/12/08 04:37:14;;;;;;;28.08;19.23;;;2.60;93.30;;;;;;5004899;28;20101;-77
2022/12/08 04:39:47;;;;;;;26.85;19.92;;;2.60;93.40;;;;;;5001433;28;20062;-78
2022/12/08 04:42:13;;;;;;;28.25;19.65;;;2.60;93.30;;;;;;4995257;28;20030;-78
2022/12/08 04:44:38;;;;;;;30.55;19.73;;;2.50;93.20;;;;;;5000078;28;20044;-77
2022/12/08 04:47:04;;;;;;;31.30;20.30;;;2.50;93.30;;;;;;5003461;28;20046;-77
2022/12/08 04:49:32;;;;;;;27.90;18.88;;;2.50;93.30;;;;;;5006868;28;20062;-78
2022/12/08 04:51:58;;;;;;;27.92;20.48;;;2.60;93.30;;;;;;4994615;28;20062;-77
2022/12/08 04:54:24;;;;;;;31.88;19.80;;;2.60;93.30;;;;;;4994632;28;20708;-77
2022/12/08 04:56:52;;;;;;;28.52;19.45;;;2.60;93.30;;;;;;4998500;28;20038;-77
2022/12/08 04:59:22;;;;;;;30.85;19.52;;;2.60;93.30;;;;;;5012490;28;20029;-77
2022/12/08 05:01:50;;;;;;;26.40;19.65;;;2.60;93.30;;;;;;5010641;28;20025;-78
2022/12/08 05:04:16;;;;;;;27.83;18.80;;;2.60;93.30;;;;;;5009134;28;20049;-77
2022/12/08 05:06:44;;;;;;;27.30;18.23;;;2.70;93.30;;;;;;5010809;28;20044;-77
2022/12/08 05:09:10;;;;;;;28.73;17.95;;;2.70;93.30;;;;;;5009772;28;20038;-76
2022/12/08 05:11:35;;;;;;;29.17;17.80;;;2.70;93.30;;;;;;5010658;28;20033;-77
2022/12/08 05:14:07;;;;;;;24.55;16.30;;;2.80;93.30;;;;;;5011331;28;20030;-79
2022/12/08 05:16:38;;;;;;;22.70;16.48;;;2.80;93.30;;;;;;5010008;28;20026;-79
2022/12/08 05:19:09;;;;;;;27.17;16.80;;;2.80;93.40;;;;;;5006120;28;20042;-78
2022/12/08 05:21:34;;;;;;;25.08;16.30;;;2.90;93.40;;;;;;5004808;28;20330;-78
2022/12/08 05:24:00;;;;;;;26.15;16.90;;;2.90;93.40;;;;;;5005376;28;20132;-79
2022/12/08 05:26:26;;;;;;;24.92;16.08;;;3.00;93.50;;;;;;5014544;28;20470;-78
2022/12/08 05:28:52;;;;;;;21.77;15.93;;;3.00;93.40;;;;;;4994364;28;20368;-76
2022/12/08 05:31:17;;;;;;;21.95;15.27;;;3.00;93.40;;;;;;4985131;28;20077;-78
2022/12/08 05:33:49;;;;;;;25.30;16.25;;;3.10;93.40;;;;;;4989741;28;20049;-77
2022/12/08 05:36:16;;;;;;;25.95;15.68;;;3.10;93.30;;;;;;4997508;28;20073;-76
2022/12/08 05:38:46;;;;;;;25.73;15.50;;;3.10;93.30;;;;;;4991028;28;20038;-79
2022/12/08 05:41:24;;;;;;;24.85;15.90;;;3.10;93.30;;;;;;4994881;28;20033;-78
2022/12/08 05:43:52;;;;;;;25.27;16.23;;;3.20;93.20;;;;;;4992105;28;20046;-76
2022/12/08 05:46:18;;;;;;;25.80;15.63;;;3.20;93.20;;;;;;4988572;28;20381;-77
2022/12/08 05:48:44;;;;;;;25.48;16.02;;;3.20;93.10;;;;;;4988106;28;20050;-77
2022/12/08 05:51:20;;;;;;;22.75;15.70;;;3.20;93.10;;;;;;4985761;28;20527;-77
2022/12/08 05:53:46;;;;;;;23.90;14.65;;;3.30;93.10;;;;;;4991025;28;20051;-79
2022/12/08 05:56:12;;;;;;;25.13;15.35;;;3.30;93.00;;;;;;4987667;28;20070;-77
2022/12/08 05:58:38;;;;;;;24.27;14.77;;;3.30;93.00;;;;;;4992121;28;20114;-77
2022/12/08 06:01:04;;;;;;;22.58;13.77;;;3.30;93.00;;;;;;4986376;28;20038;-77
2022/12/08 06:03:44;;;;;;;;;;;;;;;;;;;;;
2022/12/08 06:06:10;;;;;;;27.25;14.90;;;3.30;92.90;;;;;;4993744;28;20437;-77
2022/12/08 06:08:39;;;;;;;22.00;14.85;;;3.40;92.80;;;;;;4984072;28;20041;-78
2022/12/08 06:11:07;;;;;;;29.95;14.20;;;3.40;92.70;;;;;;4988837;28;20054;-77
2022/12/08 06:13:35;;;;;;;27.63;14.63;;;3.40;92.70;;;;;;4987316;28;20106;-76
2022/12/08 06:16:09;;;;;;;25.05;14.90;;;3.40;92.60;;;;;;4989323;28;20035;-76
2022/12/08 06:18:35;;;;;;;26.85;15.20;;;3.40;92.50;;;;;;4986201;28;20042;-79
2022/12/08 06:21:08;;;;;;;22.98;15.25;;;3.40;92.40;;;;;;4988104;28;20487;-79
2022/12/08 06:23:37;;;;;;;25.83;15.52;;;3.40;92.40;;;;;;4992196;28;20475;-76
2022/12/08 06:26:09;;;;;;;27.42;16.48;;;3.40;92.30;;;;;;4993918;28;20041;-76
2022/12/08 06:28:41;;;;;;;26.42;15.57;;;3.40;92.20;;;;;;4995813;28;20041;-76
2022/12/08 06:31:15;;;;;;;29.25;16.55;;;3.40;92.20;;;;;;4993670;28;20070;-79
2022/12/08 06:33:41;;;;;;;22.77;14.75;;;3.40;92.20;;;;;;4989686;28;20069;-76
2022/12/08 06:36:11;;;;;;;27.95;15.75;;;3.40;92.10;;;;;;4992438;28;20042;-78
2022/12/08 06:38:42;;;;;;;25.15;15.85;;;3.40;92.00;;;;;;4992418;28;20940;-77
2022/12/08 06:41:13;;;;;;;26.77;14.95;;;3.40;91.90;;;;;;4995689;28;20114;-75
2022/12/08 06:43:41;;;;;;;26.17;15.20;;;3.40;91.90;;;;;;4992278;28;20104;-75
2022/12/08 06:46:10;;;;;;;27.65;17.05;;;3.30;91.80;;;;;;4995427;28;20446;-78
2022/12/08 06:48:35;;;;;;;31.08;17.80;;;3.30;91.90;;;;;;4992643;28;20141;-76
2022/12/08 06:51:09;;;;;;;28.17;17.38;;;3.40;91.90;;;;;;4993731;28;20133;-77
2022/12/08 06:53:37;;;;;;;27.27;20.33;;;3.30;92.00;;;;;;4991287;28;20188;-76
2022/12/08 06:56:06;;;;;;;29.85;21.95;;;3.40;92.00;;;;;;4995497;28;20036;-76
2022/12/08 06:58:34;;;;;;;30.40;19.50;;;3.30;92.00;;;;;;4995430;28;20030;-77
2022/12/08 07:01:11;;;;;;;33.33;18.85;;;3.40;92.00;;;;;;4995107;28;20410;-76
2022/12/08 07:03:42;;;;;;;28.75;18.30;;;3.40;92.00;;;;;;4993092;28;20491;-77
2022/12/08 07:06:17;;;;;;;31.15;17.95;;;3.30;92.00;;;;;;4990451;28;20112;-79
2022/12/08 07:08:45;;;;;;;;;;;3.30;92.10;;;;;;4990820;28;20026;-75
2022/12/08 07:11:11;;;;;;;26.38;16.63;;;3.30;92.20;;;;;;5000966;28;19917;-75
2022/12/08 07:13:39;;;;;;;27.70;17.02;;;3.30;92.20;;;;;;5001977;28;20403;-78
2022/12/08 07:16:07;;;;;;;27.08;17.65;;;3.30;92.20;;;;;;4990760;28;20034;-78
2022/12/08 07:18:36;;;;;;;24.70;16.73;;;3.30;92.30;;;;;;4991897;28;20319;-73
2022/12/08 07:21:07;;;;;;;27.02;17.13;;;3.30;92.30;;;;;;4990271;28;20504;-75
2022/12/08 07:23:33;;;;;;;28.83;16.58;;;3.30;92.30;;;;;;4998964;28;20057;-78
2022/12/08 07:26:04;;;;;;;24.27;17.80;;;3.30;92.30;;;;;;4998824;28;20034;-75
2022/12/08 07:28:34;;;;;;;25.38;17.50;;;3.30;92.30;;;;;;4999912;28;20056;-75
2022/12/08 07:31:00;;;;;;;24.88;16.88;;;3.30;92.40;;;;;;4997114;28;20517;-76
2022/12/08 07:33:31;;;;;;;29.85;17.67;;;3.30;92.40;;;;;;4999169;28;20344;-75
2022/12/08 07:35:58;;;;;;;31.10;20.42;;;3.30;92.40;;;;;;4997828;28;20128;-75
2022/12/08 07:38:25;;;;;;;32.17;21.40;;;3.40;92.40;;;;;;4996545;28;20466;-74
2022/12/08 07:40:52;;;;;;;30.95;20.58;;;3.30;92.40;;;;;;4999877;28;20104;-75
2022/12/08 07:43:20;;;;;;;26.05;19.05;;;3.40;92.40;;;;;;4996815;28;20045;-75
2022/12/08 07:45:51;;;;;;;27.52;18.35;;;3.30;92.30;;;;;;5002312;28;20164;-79
2022/12/08 07:48:19;;;;;;;32.22;19.98;;;3.30;92.30;;;;;;5004079;28;20033;-73
2022/12/08 07:50:47;;;;;;;27.00;17.55;;;3.30;92.30;;;;;;5008683;28;20029;-73
2022/12/08 07:53:15;;;;;;;26.58;17.75;;;3.40;92.20;;;;;;5007878;28;20029;-75
2022/12/08 07:55:45;;;;;;;30.58;19.23;;;3.30;92.20;;;;;;5014067;28;20231;-78
2022/12/08 07:58:11;;;;;;;30.63;20.20;;;3.20;92.10;;;;;;5010448;28;20219;-77
2022/12/08 08:00:37;;;;;;;29.42;20.40;;;3.20;92.20;;;;;;5011234;28;20130;-76
2022/12/08 08:03:07;;;;;;;29.92;19.95;;;3.10;92.00;;;;;;5012310;28;20041;-77
2022/12/08 08:05:35;;;;;;;31.48;21.13;;;3.20;92.00;;;;;;5014225;28;20120;-77
2022/12/08 08:08:03;;;;;;;29.38;20.70;;;3.10;92.00;;;;;;5012123;28;20033;-76
2022/12/08 08:10:29;;;;;;;35.60;21.00;;;3.00;91.80;;;;;;5010104;28;20033;-76
2022/12/08 08:12:58;;;;;;;32.30;22.83;;;3.00;91.90;;;;;;5004883;28;20564;-77
2022/12/08 08:15:26;;;;;;;31.25;21.98;;;2.90;91.80;;;;;;5007132;28;20066;-75
2022/12/08 08:17:52;;;;;;;39.55;23.92;;;2.90;91.80;;;;;;5009728;28;20083;-76
2022/12/08 08:20:20;;;;;;;35.97;22.85;;;2.80;91.80;;;;;;5006971;28;20045;-76
2022/12/08 08:22:52;;;;;;;33.63;22.30;;;2.80;91.80;;;;;;5014624;28;20038;-77
2022/12/08 08:25:21;;;;;;;32.42;23.48;;;2.80;91.70;;;;;;5017018;28;20041;-77
2022/12/08 08:27:49;;;;;;;36.72;23.27;;;2.70;91.60;;;;;;5016887;28;20080;-76
2022/12/08 08:30:17;;;;;;;36.45;24.35;;;2.80;91.60;;;;;;5015919;28;20354;-73
2022/12/08 08:32:43;;;;;;;33.03;22.55;;;2.70;91.60;;;;;;5004679;28;20049;-76
2022/12/08 08:35:11;;;;;;;35.58;23.48;;;2.80;91.80;;;;;;5013930;28;20088;-76
2022/12/08 08:37:42;;;;;;;33.35;23.30;;;2.80;91.60;;;;;;5006449;28;20034;-75
2022/12/08 08:40:08;;;;;;;37.67;24.10;;;2.80;91.60;;;;;;5013441;28;20475;-76
2022/12/08 08:42:38;;;;;;;35.47;24.63;;;3.00;91.60;;;;;;5011438;28;20031;-75
2022/12/08 08:45:04;;;;;;;35.28;23.80;;;3.00;91.50;;;;;;5017198;28;20556;-76
2022/12/08 08:47:33;;;;;;;33.70;24.20;;;3.20;91.60;;;;;;5007338;28;20041;-78
2022/12/08 08:49:58;;;;;;;33.38;23.98;;;3.20;91.20;;;;;;5007766;28;20495;-78
2022/12/08 08:52:26;;;;;;;40.17;25.65;;;3.20;90.80;;;;;;5005209;28;20286;-76
2022/12/08 08:54:54;;;;;;;36.95;24.48;;;3.20;90.70;;;;;;5008917;28;20523;-78
2022/12/08 08:57:22;;;;;;;34.83;23.88;;;3.10;90.50;;;;;;5007765;28;20103;-75
2022/12/08 08:59:48;;;;;;;32.00;23.70;;;3.20;90.70;;;;;;5010874;28;20470;-74
2022/12/08 09:02:18;;;;;;;34.05;24.63;;;3.30;90.90;;;;;;5010006;28;20092;-73
2022/12/08 09:04:46;;;;;;;36.22;24.80;;;3.40;90.80;;;;;;5015493;28;20045;-73
2022/12/08 09:07:13;;;;;;;36.53;25.67;;;3.60;90.60;;;;;;5010684;28;20037;-74
2022/12/08 09:09:41;;;;;;;33.47;23.35;;;3.70;90.60;;;;;;5014287;28;20041;-74
2022/12/08 09:12:12;;;;;;;32.03;22.40;;;3.70;90.00;;;;;;5014958;28;20159;-73
2022/12/08 09:14:38;;;;;;;31.58;22.95;;;3.60;89.50;;;;;;5012667;28;20037;-73
2022/12/08 09:17:04;;;;;;;31.05;21.65;;;3.60;89.60;;;;;;5014927;28;20060;-75
2022/12/08 09:19:38;;;;;;;30.65;21.27;;;3.60;89.30;;;;;;5017159;28;20095;-75
2022/12/08 09:22:10;;;;;;;32.53;21.85;;;3.60;89.40;;;;;;5009100;28;20045;-74
2022/12/08 09:24:38;;;;;;;30.77;20.52;;;3.70;89.50;;;;;;5015220;28;20072;-74
2022/12/08 09:27:06;;;;;;;28.77;22.88;;;3.90;89.30;;;;;;5013548;28;20045;-75
2022/12/08 09:29:32;;;;;;;35.55;21.10;;;4.00;88.90;;;;;;5012762;28;20046;-75
2022/12/08 09:32:00;;;;;;;28.38;19.75;;;4.00;88.80;;;;;;5008023;28;20095;-74
2022/12/08 09:34:33;;;;;;;29.17;18.85;;;4.10;88.90;;;;;;5015081;28;20065;-74
2022/12/08 09:37:03;;;;;;;26.40;18.50;;;4.30;88.30;;;;;;5006343;28;20038;-75
2022/12/08 09:39:29;;;;;;;26.58;18.02;;;4.50;88.10;;;;;;5015742;28;20033;-75
2022/12/08 09:42:03;;;;;;;23.65;15.88;;;4.60;87.60;;;;;;5013893;28;20574;-74
2022/12/08 09:44:45;;;;;;;24.92;16.38;;;4.60;86.90;;;;;;5015117;28;20107;-74
2022/12/08 09:47:26;;;;;;;28.80;16.58;;;4.60;86.30;;;;;;5007533;28;20065;-73
2022/12/08 09:50:03;;;;;;;23.05;15.80;;;4.60;86.00;;;;;;5007859;28;20041;-75
2022/12/08 09:52:38;;;;;;;22.20;15.88;;;4.60;86.20;;;;;;5007661;28;20046;-75
2022/12/08 09:55:10;;;;;;;;;;;4.60;86.40;;;;;;5016252;28;20049;-75
2022/12/08 09:57:36;;;;;;;22.40;14.15;;;4.80;86.50;;;;;;5011056;28;20298;-74
2022/12/08 10:00:04;;;;;;;21.58;15.02;;;4.80;85.70;;;;;;5018153;28;20037;-75
2022/12/08 10:02:38;;;;;;;24.83;15.90;;;4.90;85.60;;;;;;5008701;28;20417;-75
2022/12/08 10:05:04;;;;;;;22.80;14.45;;;5.00;85.30;;;;;;5016242;28;20121;-75
2022/12/08 10:07:29;;;;;;;22.08;15.23;;;5.10;85.20;;;;;;5009041;28;20236;-75
2022/12/08 10:10:32;;;;;;;21.75;14.05;;;5.20;85.10;;;;;;5020281;28;20045;-74
2022/12/08 10:13:19;;;;;;;19.45;14.15;;;5.10;83.90;;;;;;5012051;28;20585;-75
2022/12/08 10:16:10;;;;;;;22.42;14.70;;;5.00;84.20;;;;;;5024467;28;20139;-74
2022/12/08 10:18:36;;;;;;;27.08;14.68;;;4.90;84.20;;;;;;5023561;28;20029;-76
2022/12/08 10:21:16;;;;;;;23.85;14.40;;;4.70;84.40;;;;;;5016125;28;20042;-79
2022/12/08 10:23:48;;;;;;;23.42;15.57;;;4.60;84.80;;;;;;5022994;28;20135;-76
2022/12/08 10:26:20;;;;;;;21.55;15.10;;;4.50;85.00;;;;;;5021338;28;20065;-78
2022/12/08 10:28:46;;;;;;;25.00;15.82;;;4.50;85.70;;;;;;5028267;28;20385;-76
2022/12/08 10:31:21;;;;;;;26.83;15.45;;;4.70;86.00;;;;;;5017341;28;20506;-78
2022/12/08 10:34:00;;;;;;;21.30;15.23;;;4.80;85.30;;;;;;5015612;28;20040;-80
2022/12/08 10:36:45;;;;;;;22.17;16.05;;;4.80;85.20;;;;;;5019705;28;20547;-76
2022/12/08 10:39:31;;;;;;;24.27;15.65;;;5.00;85.80;;;;;;5024698;28;20605;-78
2022/12/08 10:42:07;;;;;;;22.88;14.13;;;5.10;85.10;;;;;;5028654;28;20022;-77
2022/12/08 10:44:37;;;;;;;21.83;14.60;;;5.10;84.60;;;;;;5020912;28;20036;-76
2022/12/08 10:47:18;;;;;;;19.88;14.63;;;5.30;83.90;;;;;;5020233;28;20045;-78
2022/12/08 10:49:44;;;;;;;25.33;13.93;;;5.40;84.10;;;;;;5023633;28;20029;-76
2022/12/08 10:52:22;;;;;;;23.73;13.07;;;5.50;83.80;;;;;;5014379;28;20433;-78
2022/12/08 10:54:59;;;;;;;17.50;11.20;;;5.60;83.00;;;;;;5010757;28;20036;-79
2022/12/08 10:57:27;;;;;;;20.45;11.02;;;5.70;82.70;;;;;;5016528;28;20655;-77
2022/12/08 10:59:56;;;;;;;19.80;12.18;;;5.70;82.30;;;;;;5003387;28;20041;-80
2022/12/08 11:02:24;;;;;;;17.33;11.38;;;5.80;82.80;;;;;;5010729;28;20067;-78
2022/12/08 11:05:00;;;;;;;19.05;10.45;;;5.90;82.30;;;;;;5017284;28;20421;-78
2022/12/08 11:07:28;;;;;;;17.48;10.13;;;6.00;82.20;;;;;;5012172;28;20033;-80
2022/12/08 11:09:57;;;;;;;20.60;10.38;;;6.10;81.00;;;;;;5017244;28;20069;-80
2022/12/08 11:12:28;;;;;;;13.07;8.88;;;6.10;80.70;;;;;;5012872;28;20345;-78
2022/12/08 11:15:00;;;;;;;15.30;9.48;;;6.10;80.60;;;;;;5025482;28;20370;-81
2022/12/08 11:17:28;;;;;;;11.70;7.80;;;6.10;80.50;;;;;;5021208;28;20111;-81
2022/12/08 11:20:14;;;;;;;14.35;8.85;;;6.10;79.50;;;;;;5014201;28;20068;-79
2022/12/08 11:22:41;;;;;;;17.55;9.25;;;6.00;79.90;;;;;;5013932;28;20041;-77
2022/12/08 11:25:10;;;;;;;16.42;10.10;;;6.10;80.30;;;;;;5007648;28;20133;-75
2022/12/08 11:27:42;;;;;;;20.67;10.90;;;6.00;79.90;;;;;;5001751;28;20050;-78
2022/12/08 11:30:14;;;;;;;18.27;10.45;;;5.80;80.30;;;;;;5012298;28;20102;-77
2022/12/08 11:32:47;;;;;;;17.75;11.15;;;6.00;80.30;;;;;;5015922;28;20041;-77
2022/12/08 11:35:28;;;;;;;16.08;9.65;;;6.10;80.30;;;;;;5018177;28;20038;-79
2022/12/08 11:38:04;;;;;;;19.08;10.13;;;6.00;80.20;;;;;;5013147;28;20429;-79
2022/12/08 11:40:38;;;;;;;18.38;9.48;;;6.10;81.10;;;;;;5013366;28;20475;-79
2022/12/08 11:43:19;;;;;;;;;;;6.20;80.60;;;;;;5016174;28;20077;-78
2022/12/08 11:45:49;;;;;;;13.35;8.07;;;6.10;80.00;;;;;;5017028;28;19913;-77
2022/12/08 11:48:26;;;;;;;15.18;9.43;;;6.10;80.00;;;;;;5010708;28;20038;-79
2022/12/08 11:51:29;;;;;;;14.73;7.88;;;5.90;80.20;;;;;;5016230;28;20033;-77
2022/12/08 11:54:22;;;;;;;14.73;8.70;;;5.90;80.30;;;;;;5016609;28;20041;-79
2022/12/08 11:56:53;;;;;;;12.90;8.13;;;5.80;80.60;;;;;;5006812;28;20038;-79
2022/12/08 11:59:31;;;;;;;11.95;8.25;;;5.70;80.80;;;;;;5009418;28;20076;-78
2022/12/08 12:02:01;;;;;;;15.07;8.77;;;5.70;80.50;;;;;;5013819;28;20037;-77
2022/12/08 12:04:46;;;;;;;14.52;8.02;;;5.60;81.30;;;;;;5010647;28;20356;-80
2022/12/08 12:07:24;;;;;;;12.17;7.17;;;5.60;80.90;;;;;;5011429;28;20041;-79
2022/12/08 12:10:20;;;;;;;12.88;7.13;;;5.70;80.50;;;;;;5014493;28;20030;-79
2022/12/08 12:12:54;;;;;;;12.65;6.90;;;5.60;80.00;;;;;;5018379;28;20037;-78
2022/12/08 12:15:42;;;;;;;11.43;6.63;;;5.60;80.00;;;;;;4998686;28;20144;-80
2022/12/08 12:18:23;;;;;;;12.13;6.90;;;5.70;79.50;;;;;;5010554;28;20486;-77
2022/12/08 12:21:09;;;;;;;13.10;7.28;;;5.70;79.90;;;;;;5017908;28;20030;-80
2022/12/08 12:23:39;;;;;;;11.93;6.47;;;5.70;80.00;;;;;;4997047;28;20175;-78
2022/12/08 12:26:08;;;;;;;11.18;6.95;;;5.80;79.70;;;;;;5006666;28;20482;-78
2022/12/08 12:29:00;;;;;;;13.23;7.20;;;5.90;79.20;;;;;;5002647;28;20037;-81
2022/12/08 12:31:36;;;;;;;12.23;7.25;;;6.00;79.40;;;;;;5004159;28;20482;-80
2022/12/08 12:34:18;;;;;;;13.10;7.57;;;6.10;78.70;;;;;;4991987;28;20030;-79
2022/12/08 12:36:52;;;;;;;14.05;8.10;;;6.20;78.60;;;;;;4993902;28;20577;-80
2022/12/08 12:39:20;;;;;;;14.07;7.60;;;6.20;77.90;;;;;;4991881;28;20069;-79
2022/12/08 12:41:56;;;;;;;13.93;8.10;;;6.20;77.80;;;;;;5000893;28;20040;-79
2022/12/08 12:44:36;;;;;;;12.60;7.63;;;6.30;77.50;;;;;;4990919;28;20077;-80
2022/12/08 12:47:04;;;;;;;14.70;8.55;;;6.30;77.80;;;;;;4987971;28;20323;-77
2022/12/08 12:49:39;;;;;;;12.85;8.00;;;6.30;77.80;;;;;;4992546;28;20065;-76
2022/12/08 12:52:20;;;;;;;13.02;7.50;;;6.20;77.80;;;;;;4996416;28;20054;-76
2022/12/08 12:54:48;;;;;;;14.00;6.85;;;6.20;78.50;;;;;;5002902;28;20045;-78
2022/12/08 12:57:18;;;;;;;15.30;7.13;;;6.20;78.10;;;;;;4990188;28;20038;-79
2022/12/08 12:59:53;;;;;;;18.30;11.93;;;6.50;78.10;;;;;;4995417;28;20050;-79
2022/12/08 13:02:44;;;;;;;12.52;8.13;;;6.40;77.50;;;;;;4992706;28;20097;-77
2022/12/08 13:05:15;;;;;;;12.25;7.15;;;6.40;77.00;;;;;;4991739;28;20120;-78
2022/12/08 13:07:54;;;;;;;12.55;7.18;;;6.40;77.00;;;;;;4989437;28;20097;-77